Time;durP1;ratioP1;P1;durP2;ratioP2;P2;SDS_P1;SDS_P2;PMS_P1;PMS_P2;Temp;Humidity;BMP_temperature;BMP_pressure;BME280_temperature;BME280_humidity;BME280_pressure;Samples;Min_cycle;Max_cycle;Signal;HPM_P1;HPM_P2
2021/06/07 00:01:49;;;;;;;;;11.75;11.00;;;;;20.09;54.96;101605.06;5093953;27;45988;-80
2021/06/07 00:04:15;;;;;;;;;13.50;11.75;;;;;20.12;54.83;101619.94;5093591;27;45747;-79
2021/06/07 00:06:41;;;;;;;;;9.75;8.75;;;;;20.08;54.81;101613.22;5093658;27;45659;-79
2021/06/07 00:09:09;;;;;;;;;9.25;8.00;;;;;20.06;55.01;101616.03;5093106;27;45644;-80
2021/06/07 00:11:36;;;;;;;;;9.75;8.00;;;;;20.03;55.27;101613.63;5093470;27;45835;-80
2021/06/07 00:14:03;;;;;;;;;8.50;7.50;;;;;20.02;54.94;101611.16;5093685;27;45602;-81
2021/06/07 00:16:30;;;;;;;;;10.50;10.50;;;;;19.99;55.54;101606.94;5093805;27;45771;-81
2021/06/07 00:18:56;;;;;;;;;8.00;8.00;;;;;19.83;55.09;101585.44;5092915;27;45929;-82
2021/06/07 00:21:26;;;;;;;;;7.00;6.50;;;;;19.89;55.45;101606.13;5093328;27;46323;-78
2021/06/07 00:27:13;;;;;;;;;7.50;7.00;;;;;19.80;55.53;101596.38;5093345;27;45639;-82
2021/06/07 00:29:39;;;;;;;;;6.00;6.00;;;;;19.69;55.27;101586.75;5093037;27;46335;-80
2021/06/07 00:32:05;;;;;;;;;6.00;6.00;;;;;19.61;55.12;101583.13;5093382;27;45693;-80
2021/06/07 00:34:31;;;;;;;;;7.50;6.25;;;;;19.69;55.10;101599.19;5093306;27;45592;-80
2021/06/07 00:36:56;;;;;;;;;7.50;7.00;;;;;19.65;55.11;101601.28;5093315;27;45730;-81
2021/06/07 00:39:22;;;;;;;;;8.25;7.75;;;;;19.34;55.19;101549.28;5092647;27;45824;-79
2021/06/07 00:41:48;;;;;;;;;5.75;5.75;;;;;19.52;55.38;101594.63;5093135;27;45650;-81
2021/06/07 00:44:17;;;;;;;;;7.25;6.50;;;;;19.44;55.55;101587.31;5092697;27;45785;-82
2021/06/07 00:46:44;;;;;;;;;6.75;6.75;;;;;19.31;55.35;101565.53;5096966;27;45652;-81
2021/06/07 00:49:10;;;;;;;;;10.25;7.75;;;;;19.42;55.30;101597.25;5077998;27;47804;-81
2021/06/07 00:51:37;;;;;;;;;6.50;5.50;;;;;19.43;55.35;101598.94;5097179;27;45952;-81
2021/06/07 00:57:24;;;;;;;;;7.00;7.00;;;;;19.35;55.52;101589.97;5095800;27;45978;-80
2021/06/07 00:59:49;;;;;;;;;7.00;5.00;;;;;19.09;55.64;101550.72;5096770;27;46570;-79
2021/06/07 01:02:15;;;;;;;;;7.00;7.00;;;;;19.24;55.45;101583.84;5096834;27;45765;-80
2021/06/07 01:04:40;;;;;;;;;6.75;5.75;;;;;18.95;55.41;101543.16;5097373;27;45644;-80
2021/06/07 01:07:06;;;;;;;;;6.00;5.75;;;;;19.21;55.38;101578.81;5096980;27;45511;-81
2021/06/07 01:09:31;;;;;;;;;7.00;7.00;;;;;19.09;55.67;101566.66;5096436;27;45748;-81
2021/06/07 01:11:57;;;;;;;;;7.00;6.25;;;;;19.08;55.54;101566.78;5096686;27;46083;-81
2021/06/07 01:14:22;;;;;;;;;7.50;6.50;;;;;19.22;55.96;101587.59;5096695;27;45676;-81
2021/06/07 01:16:47;;;;;;;;;6.75;6.75;;;;;19.21;55.65;101594.75;5078142;27;45579;-79
2021/06/07 01:19:16;;;;;;;;;9.75;9.25;;;;;19.00;55.76;101551.53;5096326;27;46449;-80
2021/06/07 01:21:42;;;;;;;;;8.50;7.50;;;;;19.21;55.92;101584.13;5097496;27;45738;-80
2021/06/07 01:27:29;;;;;;;;;7.75;6.75;;;;;19.12;55.60;101578.81;5096642;27;45594;-79
2021/06/07 01:29:54;;;;;;;;;8.50;8.00;;;;;19.15;56.08;101583.84;5096451;27;47032;-81
2021/06/07 01:32:20;;;;;;;;;8.75;8.75;;;;;19.11;56.15;101582.47;5100065;27;45693;-80
2021/06/07 01:34:46;;;;;;;;;8.00;8.00;;;;;19.10;55.90;101583.44;5102748;27;45667;-79
2021/06/07 01:37:11;;;;;;;;;10.00;9.25;;;;;19.12;55.98;101586.78;5102456;27;46055;-82
2021/06/07 01:42:59;;;;;;;;;7.50;6.50;;;;;19.09;56.40;101593.22;5102618;27;45886;-80
2021/06/07 01:45:26;;;;;;;;;8.00;7.25;;;;;19.06;56.23;101589.97;5102517;27;45842;-79
2021/06/07 01:47:54;;;;;;;;;9.25;8.00;;;;;19.02;56.04;101584.13;5100606;27;45557;-81
2021/06/07 01:50:20;;;;;;;;;8.00;6.75;;;;;18.84;56.28;101569.84;5095810;27;45725;-80
2021/06/07 01:52:48;;;;;;;;;8.00;7.00;;;;;18.99;56.47;101594.19;5096071;27;46521;-82
2021/06/07 01:55:26;;;;;;;;;7.25;6.25;;;;;18.93;56.12;101592.94;5060509;27;45752;-81
2021/06/07 01:57:53;;;;;;;;;9.00;8.75;;;;;18.75;56.51;101566.22;5095591;27;45908;-80
2021/06/07 02:00:26;;;;;;;;;7.25;7.25;;;;;18.74;56.29;101561.03;5098775;27;45812;-81
2021/06/07 02:02:52;;;;;;;;;7.00;7.00;;;;;18.77;56.50;101577.56;5096244;27;46064;-80
2021/06/07 02:05:27;;;;;;;;;7.00;6.00;;;;;18.57;56.70;101553.78;5095961;27;45639;-80
2021/06/07 02:07:56;;;;;;;;;9.50;8.00;;;;;18.55;56.40;101559.22;5095959;27;45852;-81
2021/06/07 02:10:26;;;;;;;;;8.00;8.00;;;;;18.64;56.80;101576.97;5095354;27;45643;-82
2021/06/07 02:12:52;;;;;;;;;10.00;9.00;;;;;18.53;56.79;101568.25;5095624;27;46001;-81
2021/06/07 02:15:19;;;;;;;;;8.25;7.50;;;;;18.61;56.43;101579.06;5076902;27;45789;-83
2021/06/07 02:17:44;;;;;;;;;6.75;6.75;;;;;18.45;57.01;101561.81;5095740;27;45795;-82
2021/06/07 02:20:13;;;;;;;;;7.25;7.25;;;;;18.53;57.04;101584.16;5095474;27;46287;-81
2021/06/07 02:22:42;;;;;;;;;9.75;9.00;;;;;18.46;56.90;101576.75;5076979;27;47325;-81
2021/06/07 02:28:29;;;;;;;;;9.00;8.00;;;;;18.47;56.97;101582.91;5095237;27;45599;-81
2021/06/07 02:30:56;;;;;;;;;8.50;7.25;;;;;18.19;57.15;101549.19;5095257;27;46628;-81
2021/06/07 02:33:21;;;;;;;;;9.00;7.75;;;;;18.35;57.18;101568.09;5095200;27;45655;-82
2021/06/07 02:35:47;;;;;;;;;10.00;9.00;;;;;18.42;57.31;101585.13;5095309;27;45659;-81
2021/06/07 02:38:14;;;;;;;;;8.00;8.00;;;;;18.39;57.22;101580.94;5095581;27;45599;-81
2021/06/07 02:40:43;;;;;;;;;9.75;9.00;;;;;18.34;57.80;101580.50;5095314;27;45706;-81
2021/06/07 02:43:09;;;;;;;;;6.75;6.75;;;;;18.19;57.62;101565.91;5095303;27;46154;-83
2021/06/07 02:45:35;;;;;;;;;9.50;9.00;;;;;18.29;57.64;101588.03;5095424;27;45668;-81
2021/06/07 02:48:01;;;;;;;;;9.00;8.25;;;;;18.25;57.61;101581.28;5095807;27;45883;-81
2021/06/07 02:50:32;;;;;;;;;9.25;9.00;;;;;18.22;57.67;101584.22;5094399;27;45682;-81
2021/06/07 02:52:58;;;;;;;;;8.00;8.00;;;;;18.18;57.81;101579.34;5094962;27;45901;-80
2021/06/07 02:58:45;;;;;;;;;8.75;8.00;;;;;18.04;58.49;101580.53;5092589;27;45681;-81
2021/06/07 03:01:12;;;;;;;;;9.00;9.00;;;;;18.00;57.91;101587.91;5095065;27;46876;-80
2021/06/07 03:03:37;;;;;;;;;9.50;9.00;;;;;17.82;58.34;101559.47;5095219;27;46347;-79
2021/06/07 03:06:04;;;;;;;;;8.25;7.50;;;;;18.01;58.35;101596.72;5095041;27;45709;-81
2021/06/07 03:08:32;;;;;;;;;9.75;9.00;;;;;17.92;58.69;101590.38;5093196;27;45773;-81
2021/06/07 03:11:07;;;;;;;;;8.25;8.25;;;;;17.91;58.36;101590.53;5094914;27;45692;-80
2021/06/07 03:13:33;;;;;;;;;8.50;8.25;;;;;17.83;58.73;101585.88;5094913;27;45988;-82
2021/06/07 03:16:00;;;;;;;;;10.50;9.50;;;;;17.84;58.38;101597.31;5094876;27;45636;-80
2021/06/07 03:18:26;;;;;;;;;10.75;10.00;;;;;17.55;58.55;101546.75;5095016;27;45780;-80
2021/06/07 03:20:52;;;;;;;;;10.50;8.75;;;;;17.78;58.67;101587.22;5075720;27;47994;-82
2021/06/07 03:23:21;;;;;;;;;8.00;8.00;;;;;17.76;58.72;101589.19;5094750;27;46503;-79
2021/06/07 03:29:08;;;;;;;;;11.00;10.25;;;;;17.60;58.80;101568.44;5094265;27;45786;-80
2021/06/07 03:31:34;;;;;;;;;11.00;10.50;;;;;17.68;58.89;101594.28;5094423;27;45556;-81
2021/06/07 03:33:59;;;;;;;;;9.25;9.25;;;;;17.55;58.71;101568.78;5094344;27;46434;-81
2021/06/07 03:36:25;;;;;;;;;11.75;9.75;;;;;17.60;59.08;101585.19;5094548;27;45694;-81
2021/06/07 03:38:50;;;;;;;;;11.00;10.00;;;;;17.65;59.13;101579.50;5094139;27;45609;-80
2021/06/07 03:41:16;;;;;;;;;11.00;10.00;;;;;17.62;59.30;101582.41;5094127;27;46822;-79
2021/06/07 03:43:42;;;;;;;;;9.75;9.75;;;;;17.56;59.23;101578.44;5094609;27;45751;-81
2021/06/07 03:46:07;;;;;;;;;11.50;10.25;;;;;17.54;59.39;101575.06;5094503;27;45720;-82
2021/06/07 03:48:33;;;;;;;;;10.50;9.50;;;;;17.40;59.06;101554.22;5093981;27;45626;-79
2021/06/07 03:50:59;;;;;;;;;10.75;10.50;;;;;17.50;59.58;101572.81;5094267;27;45605;-80
2021/06/07 03:53:25;;;;;;;;;12.00;10.00;;;;;17.46;59.52;101569.59;5075760;27;46013;-82
2021/06/07 03:59:13;;;;;;;;;11.75;11.00;;;;;17.45;59.43;101575.00;5093141;27;45934;-83
2021/06/07 04:01:39;;;;;;;;;11.75;11.00;;;;;17.41;59.60;101569.13;5094336;27;46799;-81
2021/06/07 04:04:05;;;;;;;;;13.25;12.00;;;;;17.43;59.39;101579.63;5094309;27;45673;-81
2021/06/07 04:06:30;;;;;;;;;10.25;9.75;;;;;17.28;59.58;101552.59;5094863;27;45780;-81
2021/06/07 04:08:56;;;;;;;;;9.75;9.75;;;;;17.42;59.77;101576.13;5094488;27;45695;-81
2021/06/07 04:14:43;;;;;;;;;11.50;10.50;;;;;17.34;59.99;101565.31;5093752;27;45937;-81
2021/06/07 04:17:09;;;;;;;;;12.25;12.00;;;;;17.37;59.79;101567.72;5093911;27;45694;-81
2021/06/07 04:19:34;;;;;;;;;11.75;10.25;;;;;17.24;60.04;101543.22;5095186;27;45733;-83
2021/06/07 04:22:00;;;;;;;;;10.75;10.00;;;;;17.37;60.15;101573.03;5076263;27;48543;-80
2021/06/07 04:24:26;;;;;;;;;12.25;11.50;;;;;17.33;60.00;101566.28;5095024;27;46144;-83
2021/06/07 04:26:51;;;;;;;;;12.00;11.00;;;;;17.32;60.08;101572.56;5096140;27;45550;-83
2021/06/07 04:29:16;;;;;;;;;9.75;9.75;;;;;17.08;60.47;101537.53;5096036;27;45638;-81
2021/06/07 04:31:42;;;;;;;;;13.75;10.00;;;;;17.37;60.30;101580.97;5099948;27;46734;-82
2021/06/07 04:34:07;;;;;;;;;12.75;12.50;;;;;17.27;60.23;101565.97;5099639;27;45581;-82
2021/06/07 04:36:33;;;;;;;;;12.25;11.75;;;;;17.24;60.32;101563.56;5098897;27;45411;-81
2021/06/07 04:38:58;;;;;;;;;12.00;12.00;;;;;17.36;60.43;101576.63;5101185;27;45515;-81
2021/06/07 04:44:45;;;;;;;;;12.25;10.25;;;;;17.35;60.00;101580.25;5093305;27;46081;-83
2021/06/07 04:47:11;;;;;;;;;11.25;11.00;;;;;17.14;60.57;101542.31;5093750;27;45751;-83
2021/06/07 04:49:40;;;;;;;;;12.50;11.50;;;;;17.23;60.54;101561.88;5093499;27;45759;-82
2021/06/07 04:52:06;;;;;;;;;13.25;10.75;;;;;17.24;60.50;101561.75;5093098;27;45874;-83
2021/06/07 04:54:31;;;;;;;;;10.00;9.50;;;;;17.23;60.27;101560.06;5075144;27;46419;-82
2021/06/07 04:56:56;;;;;;;;;12.50;10.25;;;;;17.06;60.42;101531.50;5093520;27;45759;-83
2021/06/07 04:59:22;;;;;;;;;11.75;10.00;;;;;17.28;60.25;101570.28;5093538;27;45632;-83
2021/06/07 05:01:47;;;;;;;;;11.75;10.75;;;;;17.14;60.49;101548.47;5075257;27;46419;-81
2021/06/07 05:04:13;;;;;;;;;15.00;13.25;;;;;17.35;60.33;101580.25;5094143;27;45977;-83
2021/06/07 05:06:38;;;;;;;;;12.50;12.00;;;;;17.36;60.47;101579.28;5093652;27;45845;-84
2021/06/07 05:09:04;;;;;;;;;11.00;11.00;;;;;17.35;60.82;101580.25;5074941;27;45962;-81
2021/06/07 05:14:51;;;;;;;;;13.00;12.00;;;;;17.35;60.40;101590.00;5092746;27;45781;-81
2021/06/07 05:17:17;;;;;;;;;12.25;10.25;;;;;17.24;60.85;101568.88;5093117;27;45654;-82
2021/06/07 05:19:42;;;;;;;;;12.50;11.25;;;;;17.30;60.28;101576.31;5074324;27;45581;-83
2021/06/07 05:22:08;;;;;;;;;13.25;12.50;;;;;17.36;60.63;101576.63;5093550;27;46635;-79
2021/06/07 05:24:34;;;;;;;;;11.00;10.50;;;;;17.38;60.55;101585.28;5093069;27;45607;-82
2021/06/07 05:30:23;;;;;;;;;14.00;11.25;;;;;17.36;60.58;101565.19;5092991;27;45779;-81
2021/06/07 05:32:49;;;;;;;;;15.00;13.50;;;;;17.37;60.42;101572.19;5096899;27;45931;-81
2021/06/07 05:35:17;;;;;;;;;17.25;14.00;;;;;17.45;60.32;101572.34;5096709;27;45640;-81
2021/06/07 05:37:43;;;;;;;;;14.00;13.25;;;;;17.45;60.21;101577.66;5096562;27;45921;-80
2021/06/07 05:40:09;;;;;;;;;14.75;14.75;;;;;17.46;60.53;101585.47;5095876;27;45736;-83
2021/06/07 05:42:35;;;;;;;;;14.25;12.50;;;;;17.49;60.67;101581.75;5096152;27;46483;-82
2021/06/07 05:45:02;;;;;;;;;17.75;14.50;;;;;17.48;60.18;101577.41;5096097;27;46074;-81
2021/06/07 05:47:27;;;;;;;;;13.25;13.00;;;;;17.53;60.29;101580.50;5095868;27;45661;-81
2021/06/07 05:49:53;;;;;;;;;15.50;14.25;;;;;17.58;60.38;101592.41;5096114;27;45886;-82
2021/06/07 05:52:18;;;;;;;;;14.50;14.50;;;;;17.61;59.99;101591.31;5096023;27;46387;-81
2021/06/07 05:54:43;;;;;;;;;14.50;13.50;;;;;17.47;60.11;101565.13;5095469;27;45734;-80
2021/06/07 06:00:35;;;;;;;;;11.75;11.75;;;;;17.67;60.22;101590.81;5094004;27;45653;-82
2021/06/07 06:03:01;;;;;;;;;15.75;12.50;;;;;17.63;60.25;101589.41;5095737;27;45799;-82
2021/06/07 06:05:27;;;;;;;;;13.75;13.00;;;;;17.66;59.99;101589.13;5095830;27;46072;-82
2021/06/07 06:07:52;;;;;;;;;13.00;12.00;;;;;17.53;60.05;101573.41;5095538;27;45707;-80
2021/06/07 06:10:18;;;;;;;;;13.50;12.25;;;;;17.73;59.59;101597.38;5077087;27;45874;-80
2021/06/07 06:12:46;;;;;;;;;14.00;13.00;;;;;17.74;59.81;101596.44;5095451;27;46357;-81
2021/06/07 06:15:12;;;;;;;;;13.75;13.50;;;;;17.56;59.88;101564.34;5095660;27;46184;-82
2021/06/07 06:17:39;;;;;;;;;15.25;13.25;;;;;17.76;59.38;101597.97;5095996;27;45859;-81
2021/06/07 06:20:06;;;;;;;;;15.50;14.50;;;;;17.79;59.41;101596.88;5096062;27;45674;-82
2021/06/07 06:22:32;;;;;;;;;12.25;11.00;;;;;17.77;59.54;101599.66;5095804;27;45746;-83
2021/06/07 06:24:58;;;;;;;;;14.75;14.50;;;;;17.79;59.36;101591.56;5096043;27;46245;-83
2021/06/07 06:30:45;;;;;;;;;13.50;13.50;;;;;17.91;59.50;101598.47;5095838;27;45613;-82
2021/06/07 06:33:11;;;;;;;;;13.00;13.00;;;;;17.93;59.14;101607.97;5097532;27;46165;-83
2021/06/07 06:35:36;;;;;;;;;13.25;12.75;;;;;17.81;58.92;101579.88;5097362;27;46827;-81
2021/06/07 06:38:02;;;;;;;;;13.00;12.00;;;;;17.85;59.02;101577.78;5096606;27;45584;-83
2021/06/07 06:40:31;;;;;;;;;14.50;14.25;;;;;17.99;59.20;101596.00;5095766;27;45533;-84
2021/06/07 06:46:18;;;;;;;;;13.00;12.75;;;;;17.96;58.84;101569.75;5096030;27;45527;-81
2021/06/07 06:48:43;;;;;;;;;19.25;15.25;;;;;18.04;58.88;101591.13;5095822;27;45755;-81
2021/06/07 06:51:09;;;;;;;;;14.25;14.25;;;;;17.97;58.88;101555.53;5096384;27;45723;-80
2021/06/07 06:53:34;;;;;;;;;18.00;14.50;;;;;18.16;58.65;101584.75;5077050;27;48514;-83
2021/06/07 06:56:00;;;;;;;;;15.25;14.00;;;;;18.11;58.48;101565.75;5076905;27;47282;-83
2021/06/07 06:58:25;;;;;;;;;18.25;16.00;;;;;18.24;58.63;101590.25;5095097;27;46108;-81
2021/06/07 07:00:51;;;;;;;;;15.75;14.75;;;;;18.30;58.62;101589.69;5095155;27;45676;-80
2021/06/07 07:03:18;;;;;;;;;16.00;14.50;;;;;18.37;58.09;101600.59;5095073;27;46502;-83
2021/06/07 07:05:45;;;;;;;;;18.00;15.25;;;;;18.23;58.39;101572.66;5095239;27;46017;-80
2021/06/07 07:08:10;;;;;;;;;17.50;14.75;;;;;18.12;58.41;101542.72;5095094;27;45727;-80
2021/06/07 07:10:37;;;;;;;;;12.25;11.50;;;;;18.37;58.21;101592.66;5095345;27;45962;-83
2021/06/07 07:16:25;;;;;;;;;13.75;13.25;;;;;18.28;57.48;101574.91;5094884;27;46060;-82
2021/06/07 07:18:50;;;;;;;;;15.50;14.00;;;;;18.53;57.26;101608.91;5095641;27;45785;-83
2021/06/07 07:21:16;;;;;;;;;16.50;15.25;;;;;18.45;57.32;101595.47;5078573;27;45790;-82
2021/06/07 07:23:41;;;;;;;;;18.00;15.25;;;;;18.54;57.21;101605.31;5099047;27;46772;-81
2021/06/07 07:26:07;;;;;;;;;15.00;15.00;;;;;18.46;56.90;101584.72;5099733;27;45569;-83
2021/06/07 07:28:32;;;;;;;;;17.25;15.75;;;;;18.58;56.83;101590.78;5097283;27;45660;-82
2021/06/07 07:30:58;;;;;;;;;17.25;15.50;;;;;18.51;57.20;101578.16;5097386;27;45962;-82
2021/06/07 07:33:24;;;;;;;;;12.50;11.50;;;;;18.68;56.52;101604.06;5096597;27;46553;-83
2021/06/07 07:35:50;;;;;;;;;14.75;13.00;;;;;18.69;56.72;101598.63;5096350;27;45616;-88
2021/06/07 07:38:15;;;;;;;;;14.75;14.75;;;;;18.63;56.30;101577.94;5100214;27;45835;-85
2021/06/07 07:40:41;;;;;;;;;18.75;16.75;;;;;18.64;56.69;101576.13;5080141;27;45518;-85
2021/06/07 07:46:28;;;;;;;;;20.75;17.75;;;;;18.76;56.08;101575.03;5098377;27;45865;-85
2021/06/07 07:48:54;;;;;;;;;20.00;18.25;;;;;18.81;56.67;101581.59;5100044;27;45655;-88
2021/06/07 07:51:19;;;;;;;;;19.75;18.50;;;;;18.80;56.45;101571.94;5064199;27;45622;-88
2021/06/07 07:53:45;;;;;;;;;16.00;15.25;;;;;18.81;56.12;101575.44;5083181;27;45851;-86
2021/06/07 07:56:10;;;;;;;;;23.25;20.25;;;;;18.77;56.26;101558.13;5082057;27;47276;-86
2021/06/07 07:58:36;;;;;;;;;17.50;16.50;;;;;19.11;56.28;101599.22;5098618;27;45512;-84
2021/06/07 08:01:04;;;;;;;;;19.50;17.00;;;;;19.16;56.22;101598.81;5061541;27;45694;-82
2021/06/07 08:03:29;;;;;;;;;18.75;15.50;;;;;18.95;55.69;101563.59;5096248;27;46682;-81
2021/06/07 08:05:54;;;;;;;;;18.00;16.50;;;;;19.22;55.72;101601.72;5100371;27;46329;-85
2021/06/07 08:08:20;;;;;;;;;15.25;15.00;;;;;19.24;55.54;101597.13;5102621;27;45532;-86
2021/06/07 08:10:45;;;;;;;;;20.25;18.25;;;;;19.21;55.44;101578.81;5105482;27;45540;-83
2021/06/07 08:16:32;;;;;;;;;14.00;13.75;;;;;19.33;55.19;101587.47;5098295;27;45703;-85
2021/06/07 08:18:58;;;;;;;;;12.25;11.50;;;;;19.38;54.68;101584.41;5102942;27;45630;-84
2021/06/07 08:21:24;;;;;;;;;17.00;14.25;;;;;19.35;55.00;101572.22;5081900;27;45611;-82
2021/06/07 08:23:49;;;;;;;;;16.50;14.50;;;;;19.48;54.72;101579.94;5096867;27;46050;-85
2021/06/07 08:26:15;;;;;;;;;13.50;13.50;;;;;19.56;54.88;101578.22;5081471;27;47106;-83
2021/06/07 08:28:41;;;;;;;;;13.50;11.75;;;;;19.40;54.74;101555.84;5102592;27;45598;-83
2021/06/07 08:31:06;;;;;;;;;12.00;10.25;;;;;19.35;54.23;101537.66;5085758;27;46014;-83
2021/06/07 08:33:35;;;;;;;;;16.25;13.25;;;;;19.65;54.31;101588.00;5085265;27;46919;-87
2021/06/07 08:36:02;;;;;;;;;13.50;12.75;;;;;19.64;53.86;101586.34;5084881;27;47420;-83
2021/06/07 08:38:28;;;;;;;;;14.00;12.50;;;;;19.77;54.10;101598.47;5105176;27;45605;-84
2021/06/07 08:40:54;;;;;;;;;12.75;12.75;;;;;19.79;53.82;101588.53;5104595;27;45876;-83
2021/06/07 08:46:42;;;;;;;;;14.75;13.00;;;;;19.80;53.64;101584.91;5099187;27;45885;-84
2021/06/07 08:49:07;;;;;;;;;14.25;11.75;;;;;19.83;53.57;101579.28;5097041;27;45685;-82
2021/06/07 08:51:33;;;;;;;;;13.25;10.00;;;;;19.98;53.63;101607.06;5095176;27;45607;-85
2021/06/07 08:53:58;;;;;;;;;11.75;10.25;;;;;20.01;53.12;101589.03;5076362;27;48341;-81
2021/06/07 08:56:24;;;;;;;;;13.25;10.75;;;;;20.00;52.81;101587.34;5095774;27;45645;-84
2021/06/07 09:02:36;;;;;;;;;13.00;11.50;;;;;20.13;52.42;101576.38;5094001;27;45655;-82
2021/06/07 09:05:05;;;;;;;;;8.00;8.00;;;;;20.13;52.54;101570.22;5077337;27;46339;-86
2021/06/07 09:07:30;;;;;;;;;13.50;13.00;;;;;19.98;52.45;101546.72;5079517;27;46582;-84
2021/06/07 09:10:11;;;;;;;;;8.25;8.00;;;;;20.27;52.29;101585.69;5098672;27;45691;-85
2021/06/07 09:12:38;;;;;;;;;8.75;7.75;;;;;20.10;52.17;101548.22;5098615;27;46004;-83
2021/06/07 09:15:04;;;;;;;;;8.00;7.00;;;;;20.38;52.05;101589.00;5098253;27;45534;-85
2021/06/07 09:17:29;;;;;;;;;8.00;7.25;;;;;20.43;51.72;101593.88;5098255;27;45881;-84
2021/06/07 09:20:14;;;;;;;;;8.00;7.25;;;;;20.20;51.88;101547.31;5079694;27;45487;-81
2021/06/07 09:22:51;;;;;;;;;10.50;9.50;;;;;20.45;51.32;101576.78;5079929;27;45532;-84
2021/06/07 09:25:19;;;;;;;;;9.75;9.75;;;;;20.56;51.16;101583.75;5098901;27;46477;-85
2021/06/07 09:28:03;;;;;;;;;11.75;11.00;;;;;20.62;51.31;101579.63;5098218;27;45994;-83
2021/06/07 09:30:48;;;;;;;;;9.75;8.75;;;;;20.62;50.99;101575.13;5079386;27;46082;-83
2021/06/07 09:33:40;;;;;;;;;13.00;10.75;;;;;20.42;51.22;101536.31;5080388;27;45651;-87
2021/06/07 09:36:17;;;;;;;;;8.00;7.25;;;;;20.76;50.64;101593.25;5082002;27;46726;-85
2021/06/07 09:39:01;;;;;;;;;10.75;10.00;;;;;20.83;50.10;101597.00;5080277;27;47248;-84
2021/06/07 09:41:29;;;;;;;;;10.50;9.75;;;;;20.75;49.90;101564.09;5097903;27;45814;-83
2021/06/07 09:44:00;;;;;;;;;12.50;11.00;;;;;20.81;50.02;101572.34;5080672;27;45878;-84
2021/06/07 09:46:29;;;;;;;;;11.25;9.00;;;;;21.00;50.31;101589.19;5079657;27;47630;-86
2021/06/07 09:49:09;;;;;;;;;9.00;9.00;;;;;21.05;49.72;101606.38;5079944;27;47101;-86
2021/06/07 09:51:36;;;;;;;;;13.75;13.25;;;;;20.97;49.82;101573.47;5101311;27;46141;-86
2021/06/07 09:54:02;;;;;;;;;7.75;7.75;;;;;21.10;49.41;101592.59;5100655;27;45674;-86
2021/06/07 09:56:28;;;;;;;;;9.00;8.25;;;;;21.15;49.76;101590.34;5083103;27;47176;-86
2021/06/07 09:58:54;;;;;;;;;9.00;8.00;;;;;21.19;48.92;101595.19;5080507;27;47167;-87
2021/06/07 10:01:31;;;;;;;;;8.00;6.50;;;;;21.26;49.11;101596.28;5080777;27;45621;-86
2021/06/07 10:04:00;;;;;;;;;6.00;6.00;;;;;20.92;48.66;101525.97;5080961;27;45907;-86
2021/06/07 10:06:35;;;;;;;;;8.75;7.50;;;;;21.33;48.25;101599.97;5081415;27;46650;-87
2021/06/07 10:09:04;;;;;;;;;6.00;6.00;;;;;21.38;48.48;101590.69;5082168;27;47219;-86
2021/06/07 10:11:36;;;;;;;;;7.00;6.75;;;;;21.24;47.41;101560.91;5087010;27;45650;-86
2021/06/07 10:14:13;;;;;;;;;8.00;8.00;;;;;21.40;47.73;101572.69;5085244;27;45669;-86
2021/06/07 10:16:50;;;;;;;;;8.00;7.00;;;;;21.51;47.70;101588.44;5083922;27;48066;-88
2021/06/07 10:19:19;;;;;;;;;6.50;6.00;;;;;21.41;47.59;101563.72;5081008;27;47137;-89
2021/06/07 10:21:45;;;;;;;;;11.75;9.00;;;;;21.57;47.49;101588.66;5080945;27;45657;-87
2021/06/07 10:24:14;;;;;;;;;8.25;7.00;;;;;21.51;47.44;101569.78;5098852;27;45643;-85
2021/06/07 10:26:40;;;;;;;;;5.25;5.25;;;;;21.45;46.74;101541.06;5080267;27;48691;-89
2021/06/07 10:29:05;;;;;;;;;8.25;8.25;;;;;21.56;46.70;101565.66;5100865;27;45730;-88
2021/06/07 10:31:31;;;;;;;;;7.50;6.50;;;;;21.59;46.91;101546.66;5100717;27;45605;-85
2021/06/07 10:34:17;;;;;;;;;6.75;6.75;;;;;21.78;46.96;101577.63;5083923;27;45872;-86
2021/06/07 10:36:51;;;;;;;;;7.25;6.00;;;;;21.64;47.29;101552.38;5018061;28;47983;-85
2021/06/07 10:39:18;;;;;;;;;7.00;7.00;;;;;21.87;46.62;101571.31;5004079;28;46386;-89
2021/06/07 10:41:47;;;;;;;;;6.75;6.75;;;;;21.93;46.73;101572.53;5004717;28;45500;-89
2021/06/07 10:44:12;;;;;;;;;8.25;8.00;;;;;21.96;46.57;101575.75;5021715;28;45833;-85
2021/06/07 10:46:41;;;;;;;;;9.75;8.25;;;;;21.99;45.63;101577.25;5018763;28;45842;-85
2021/06/07 10:49:34;;;;;;;;;9.50;7.25;;;;;22.04;45.94;101562.44;5018895;28;45539;-90
2021/06/07 10:52:18;;;;;;;;;7.00;7.00;;;;;22.08;45.67;101560.28;5012776;28;46019;-83
2021/06/07 10:54:54;;;;;;;;;7.00;7.00;;;;;21.98;45.83;101538.22;5020559;28;45718;-89
2021/06/07 11:00:46;;;;;;;;;6.00;5.75;;;;;22.14;45.97;101576.50;5017933;28;45852;-85
2021/06/07 11:03:23;;;;;;;;;8.00;8.00;;;;;22.05;45.88;101549.94;5002996;28;45878;-87
2021/06/07 11:05:55;;;;;;;;;9.50;8.00;;;;;22.22;45.78;101567.69;5019675;28;45668;-85
2021/06/07 11:08:31;;;;;;;;;8.00;7.75;;;;;22.26;45.65;101571.72;5020499;28;45761;-85
2021/06/07 11:11:05;;;;;;;;;9.00;8.00;;;;;22.12;45.03;101546.47;5006313;28;48456;-88
2021/06/07 11:16:52;;;;;;;;;7.00;7.00;;;;;22.26;44.92;101545.00;5106968;27;45589;-86
2021/06/07 11:19:18;;;;;;;;;7.25;7.25;;;;;22.26;44.38;101547.69;5087101;27;47207;-86
2021/06/07 11:21:55;;;;;;;;;8.75;8.25;;;;;22.32;43.51;101540.84;5106509;27;46442;-87
2021/06/07 11:24:31;;;;;;;;;8.50;8.00;;;;;22.16;43.42;101498.94;5088151;27;45586;-84
2021/06/07 11:26:58;;;;;;;;;6.75;6.25;;;;;22.33;43.86;101516.66;5088783;27;45899;-88
2021/06/07 11:32:45;;;;;;;;;8.25;8.00;;;;;22.55;43.29;101550.78;5100671;27;45639;-87
2021/06/07 11:35:43;;;;;;;;;9.00;9.00;;;;;22.71;43.66;101552.66;5082946;27;45719;-84
2021/06/07 11:38:37;;;;;;;;;6.50;6.50;;;;;22.77;43.86;101552.00;5080844;27;45382;-87
2021/06/07 11:41:05;;;;;;;;;6.50;6.25;;;;;22.73;43.60;101541.78;5078605;27;47506;-86
2021/06/07 11:43:46;;;;;;;;;8.00;8.00;;;;;22.85;43.06;101554.69;5097646;27;45458;-86
2021/06/07 11:46:30;;;;;;;;;8.75;8.00;;;;;22.89;42.87;101556.00;5079343;27;45762;-85
2021/06/07 11:49:06;;;;;;;;;8.50;7.00;;;;;22.71;43.24;101506.38;5078323;27;45689;-87
2021/06/07 11:51:34;;;;;;;;;7.50;6.75;;;;;22.90;43.27;101552.34;5096049;27;45687;-83
2021/06/07 11:54:20;;;;;;;;;10.00;9.00;;;;;22.79;42.03;101509.91;5096671;27;46062;-85
2021/06/07 11:56:58;;;;;;;;;7.00;7.00;;;;;23.00;42.13;101533.47;5077637;27;45853;-84
2021/06/07 11:59:25;;;;;;;;;9.75;8.00;;;;;23.10;42.79;101541.34;5096097;27;45760;-83
2021/06/07 12:01:51;;;;;;;;;7.50;6.00;;;;;23.13;41.47;101538.31;5077477;27;48436;-88
2021/06/07 12:04:26;;;;;;;;;7.75;7.00;;;;;22.91;40.71;101502.41;5096752;27;45747;-84
2021/06/07 12:06:58;;;;;;;;;7.00;7.00;;;;;22.87;40.36;101493.91;5078836;27;45622;-88
2021/06/07 12:09:24;;;;;;;;;7.50;7.00;;;;;23.13;40.57;101519.59;5079189;27;45590;-88
2021/06/07 12:11:51;;;;;;;;;8.00;7.00;;;;;23.08;40.82;101512.09;5078166;27;48912;-85
2021/06/07 12:14:31;;;;;;;;;8.00;7.00;;;;;23.20;41.42;101532.16;5096278;27;46123;-85
2021/06/07 12:17:03;;;;;;;;;7.00;6.50;;;;;23.35;41.09;101537.63;5077781;27;45805;-84
2021/06/07 12:19:51;;;;;;;;;8.00;8.00;;;;;23.32;40.61;101530.78;5096197;27;45542;-88
2021/06/07 12:22:26;;;;;;;;;9.25;8.50;;;;;23.42;39.99;101543.97;5078603;27;45638;-83
2021/06/07 12:25:12;;;;;;;;;5.50;5.50;;;;;23.35;40.48;101514.41;5098455;27;45712;-87
2021/06/07 12:30:21;;;;;;;;;10.00;8.50;;;;;23.52;39.67;101525.09;5096612;27;45756;-86
2021/06/07 12:32:49;;;;;;;;;7.75;7.25;;;;;23.61;40.59;101527.56;5077112;27;47332;-82
2021/06/07 12:35:17;;;;;;;;;8.50;7.00;;;;;23.61;39.73;101516.03;5095190;27;45693;-83
2021/06/07 12:37:46;;;;;;;;;8.50;8.00;;;;;23.68;40.49;101527.72;5095155;27;45527;-83
2021/06/07 12:40:23;;;;;;;;;8.75;8.00;;;;;23.71;39.71;101544.28;5097187;27;46003;-81
2021/06/07 12:46:10;;;;;;;;;7.25;7.25;;;;;23.68;40.04;101515.19;5102266;27;45951;-85